sensor_id;sensor_type;location;lat;lon;timestamp;temperature;humidity
20070;DHT22;10195;50.868;4.382;2023-03-26T00:01:25;10.70;99.90
20070;DHT22;10195;50.868;4.382;2023-03-26T00:03:52;10.70;99.90
20070;DHT22;10195;50.868;4.382;2023-03-26T00:06:21;10.60;99.90
20070;DHT22;10195;50.868;4.382;2023-03-26T00:08:48;10.70;99.90
20070;DHT22;10195;50.868;4.382;2023-03-26T00:11:16;10.60;99.90
20070;DHT22;10195;50.868;4.382;2023-03-26T00:13:43;10.70;99.90
20070;DHT22;10195;50.868;4.382;2023-03-26T00:16:15;10.70;99.90
20070;DHT22;10195;50.868;4.382;2023-03-26T00:18:41;10.80;99.90
20070;DHT22;10195;50.868;4.382;2023-03-26T00:21:12;10.90;99.90
20070;DHT22;10195;50.868;4.382;2023-03-26T00:23:38;10.90;99.90
20070;DHT22;10195;50.868;4.382;2023-03-26T00:26:05;10.90;99.90
20070;DHT22;10195;50.868;4.382;2023-03-26T00:28:36;10.90;99.90
20070;DHT22;10195;50.868;4.382;2023-03-26T00:31:04;11.00;99.90
20070;DHT22;10195;50.868;4.382;2023-03-26T00:33:31;11.10;99.90
20070;DHT22;10195;50.868;4.382;2023-03-26T00:36:05;11.20;99.90
20070;DHT22;10195;50.868;4.382;2023-03-26T00:38:31;11.20;99.90
20070;DHT22;10195;50.868;4.382;2023-03-26T00:41:04;11.20;99.90
20070;DHT22;10195;50.868;4.382;2023-03-26T00:43:31;11.10;99.90
20070;DHT22;10195;50.868;4.382;2023-03-26T00:45:58;11.00;99.90
20070;DHT22;10195;50.868;4.382;2023-03-26T00:48:24;11.20;99.90
20070;DHT22;10195;50.868;4.382;2023-03-26T00:50:51;11.30;99.90
20070;DHT22;10195;50.868;4.382;2023-03-26T00:53:17;11.40;99.90
20070;DHT22;10195;50.868;4.382;2023-03-26T00:55:45;11.30;99.90
20070;DHT22;10195;50.868;4.382;2023-03-26T00:58:12;11.00;99.90
20070;DHT22;10195;50.868;4.382;2023-03-26T01:00:51;11.20;99.90
20070;DHT22;10195;50.868;4.382;2023-03-26T01:03:18;11.20;99.90
20070;DHT22;10195;50.868;4.382;2023-03-26T01:05:49;11.00;99.90
20070;DHT22;10195;50.868;4.382;2023-03-26T01:11:00;10.70;99.90
20070;DHT22;10195;50.868;4.382;2023-03-26T01:13:37;10.60;99.90
20070;DHT22;10195;50.868;4.382;2023-03-26T01:16:07;10.50;99.90
20070;DHT22;10195;50.868;4.382;2023-03-26T01:18:36;10.30;99.90
20070;DHT22;10195;50.868;4.382;2023-03-26T01:21:06;10.20;99.90
20070;DHT22;10195;50.868;4.382;2023-03-26T01:23:44;10.20;99.90
20070;DHT22;10195;50.868;4.382;2023-03-26T01:26:30;10.40;99.90
20070;DHT22;10195;50.868;4.382;2023-03-26T01:29:03;10.40;99.90
20070;DHT22;10195;50.868;4.382;2023-03-26T01:36:56;10.40;99.90
20070;DHT22;10195;50.868;4.382;2023-03-26T01:39:28;10.20;99.90
20070;DHT22;10195;50.868;4.382;2023-03-26T01:42:07;10.20;99.90
20070;DHT22;10195;50.868;4.382;2023-03-26T01:44:42;10.20;99.90
20070;DHT22;10195;50.868;4.382;2023-03-26T01:47:11;10.10;99.90
20070;DHT22;10195;50.868;4.382;2023-03-26T01:49:37;10.10;99.90
20070;DHT22;10195;50.868;4.382;2023-03-26T01:52:11;10.10;99.90
20070;DHT22;10195;50.868;4.382;2023-03-26T01:54:38;10.10;99.90
20070;DHT22;10195;50.868;4.382;2023-03-26T01:57:15;10.20;99.90
20070;DHT22;10195;50.868;4.382;2023-03-26T02:07:40;10.50;99.90
20070;DHT22;10195;50.868;4.382;2023-03-26T02:10:12;10.30;99.90
20070;DHT22;10195;50.868;4.382;2023-03-26T02:12:40;10.30;99.90
20070;DHT22;10195;50.868;4.382;2023-03-26T02:15:07;10.20;99.90
20070;DHT22;10195;50.868;4.382;2023-03-26T02:17:33;10.30;99.90
20070;DHT22;10195;50.868;4.382;2023-03-26T02:19:59;10.20;99.90
20070;DHT22;10195;50.868;4.382;2023-03-26T02:22:36;10.20;99.90
20070;DHT22;10195;50.868;4.382;2023-03-26T02:25:24;10.30;99.90
20070;DHT22;10195;50.868;4.382;2023-03-26T02:27:51;10.30;99.90
20070;DHT22;10195;50.868;4.382;2023-03-26T02:30:23;10.40;99.90
20070;DHT22;10195;50.868;4.382;2023-03-26T02:32:51;10.30;99.90
20070;DHT22;10195;50.868;4.382;2023-03-26T02:35:19;10.30;99.90
20070;DHT22;10195;50.868;4.382;2023-03-26T02:37:46;10.20;99.90
20070;DHT22;10195;50.868;4.382;2023-03-26T02:40:16;10.30;99.90
20070;DHT22;10195;50.868;4.382;2023-03-26T02:42:43;10.40;99.90
20070;DHT22;10195;50.868;4.382;2023-03-26T02:45:08;10.40;99.90
20070;DHT22;10195;50.868;4.382;2023-03-26T02:47:34;10.40;99.90
20070;DHT22;10195;50.868;4.382;2023-03-26T02:50:00;10.60;99.90
20070;DHT22;10195;50.868;4.382;2023-03-26T02:52:28;10.60;99.90
20070;DHT22;10195;50.868;4.382;2023-03-26T02:54:54;10.60;99.90
20070;DHT22;10195;50.868;4.382;2023-03-26T02:57:21;10.50;99.90
20070;DHT22;10195;50.868;4.382;2023-03-26T02:59:46;10.50;99.90
20070;DHT22;10195;50.868;4.382;2023-03-26T03:02:15;10.60;99.90
20070;DHT22;10195;50.868;4.382;2023-03-26T03:04:41;10.50;99.90
20070;DHT22;10195;50.868;4.382;2023-03-26T03:07:07;10.60;99.90
20070;DHT22;10195;50.868;4.382;2023-03-26T03:09:32;10.60;99.90
20070;DHT22;10195;50.868;4.382;2023-03-26T03:11:59;10.60;99.90
20070;DHT22;10195;50.868;4.382;2023-03-26T03:14:25;10.50;99.90
20070;DHT22;10195;50.868;4.382;2023-03-26T03:16:50;10.60;99.90
20070;DHT22;10195;50.868;4.382;2023-03-26T03:19:18;10.80;99.90
20070;DHT22;10195;50.868;4.382;2023-03-26T03:21:43;10.90;99.90
20070;DHT22;10195;50.868;4.382;2023-03-26T03:24:09;10.90;99.90
20070;DHT22;10195;50.868;4.382;2023-03-26T03:26:36;10.80;99.90
20070;DHT22;10195;50.868;4.382;2023-03-26T03:29:02;10.80;99.90
20070;DHT22;10195;50.868;4.382;2023-03-26T03:31:28;10.60;99.90
20070;DHT22;10195;50.868;4.382;2023-03-26T03:33:53;10.60;99.90
20070;DHT22;10195;50.868;4.382;2023-03-26T03:36:20;10.40;99.90
20070;DHT22;10195;50.868;4.382;2023-03-26T03:38:47;10.50;99.90
20070;DHT22;10195;50.868;4.382;2023-03-26T03:41:13;10.30;99.90
20070;DHT22;10195;50.868;4.382;2023-03-26T03:43:39;10.40;99.90
20070;DHT22;10195;50.868;4.382;2023-03-26T03:46:05;10.30;99.90
20070;DHT22;10195;50.868;4.382;2023-03-26T03:48:31;10.30;99.90
20070;DHT22;10195;50.868;4.382;2023-03-26T03:50:57;10.30;99.90
20070;DHT22;10195;50.868;4.382;2023-03-26T03:53:24;10.40;99.90
20070;DHT22;10195;50.868;4.382;2023-03-26T03:55:52;10.30;99.90
20070;DHT22;10195;50.868;4.382;2023-03-26T03:58:23;10.40;99.90
20070;DHT22;10195;50.868;4.382;2023-03-26T04:00:50;10.40;99.90
20070;DHT22;10195;50.868;4.382;2023-03-26T04:03:17;10.40;99.90
20070;DHT22;10195;50.868;4.382;2023-03-26T04:05:44;10.40;99.90
20070;DHT22;10195;50.868;4.382;2023-03-26T04:08:20;10.30;99.90
20070;DHT22;10195;50.868;4.382;2023-03-26T04:10:46;10.20;99.90
20070;DHT22;10195;50.868;4.382;2023-03-26T04:13:13;10.30;99.90
20070;DHT22;10195;50.868;4.382;2023-03-26T04:15:40;10.40;99.90
20070;DHT22;10195;50.868;4.382;2023-03-26T04:18:06;10.50;99.90
20070;DHT22;10195;50.868;4.382;2023-03-26T04:20:39;10.30;99.90
20070;DHT22;10195;50.868;4.382;2023-03-26T04:23:07;10.30;99.90
20070;DHT22;10195;50.868;4.382;2023-03-26T04:25:34;10.30;99.90
20070;DHT22;10195;50.868;4.382;2023-03-26T04:28:02;10.20;99.90
20070;DHT22;10195;50.868;4.382;2023-03-26T04:30:31;10.30;99.90
20070;DHT22;10195;50.868;4.382;2023-03-26T04:33:01;10.20;99.90
20070;DHT22;10195;50.868;4.382;2023-03-26T04:35:33;10.30;99.90
20070;DHT22;10195;50.868;4.382;2023-03-26T04:38:00;10.20;99.90
20070;DHT22;10195;50.868;4.382;2023-03-26T04:40:26;10.30;99.90
20070;DHT22;10195;50.868;4.382;2023-03-26T04:42:55;10.20;99.90
20070;DHT22;10195;50.868;4.382;2023-03-26T04:45:22;10.20;99.90
20070;DHT22;10195;50.868;4.382;2023-03-26T04:47:49;10.10;99.90
20070;DHT22;10195;50.868;4.382;2023-03-26T04:50:15;10.10;99.90
20070;DHT22;10195;50.868;4.382;2023-03-26T04:52:41;10.20;99.90
20070;DHT22;10195;50.868;4.382;2023-03-26T04:55:19;10.20;99.90
20070;DHT22;10195;50.868;4.382;2023-03-26T04:57:50;10.20;99.90
20070;DHT22;10195;50.868;4.382;2023-03-26T05:00:18;10.20;99.90
20070;DHT22;10195;50.868;4.382;2023-03-26T05:02:45;10.30;99.90
20070;DHT22;10195;50.868;4.382;2023-03-26T05:05:14;10.40;99.90
20070;DHT22;10195;50.868;4.382;2023-03-26T05:07:41;10.30;99.90
20070;DHT22;10195;50.868;4.382;2023-03-26T05:10:07;10.10;99.90
20070;DHT22;10195;50.868;4.382;2023-03-26T05:12:33;10.30;99.90
20070;DHT22;10195;50.868;4.382;2023-03-26T05:14:59;10.10;99.90
20070;DHT22;10195;50.868;4.382;2023-03-26T05:17:25;10.10;99.90
20070;DHT22;10195;50.868;4.382;2023-03-26T05:19:51;10.20;99.90
20070;DHT22;10195;50.868;4.382;2023-03-26T05:22:19;10.20;99.90
20070;DHT22;10195;50.868;4.382;2023-03-26T05:24:45;10.20;99.90
20070;DHT22;10195;50.868;4.382;2023-03-26T05:27:15;10.20;99.90
20070;DHT22;10195;50.868;4.382;2023-03-26T05:29:47;10.10;99.90
20070;DHT22;10195;50.868;4.382;2023-03-26T05:32:13;10.10;99.90
20070;DHT22;10195;50.868;4.382;2023-03-26T05:34:39;10.20;99.90
20070;DHT22;10195;50.868;4.382;2023-03-26T05:37:05;10.20;99.90
20070;DHT22;10195;50.868;4.382;2023-03-26T05:39:32;10.20;99.90
20070;DHT22;10195;50.868;4.382;2023-03-26T05:41:58;10.10;99.90
20070;DHT22;10195;50.868;4.382;2023-03-26T05:44:23;9.80;99.90
20070;DHT22;10195;50.868;4.382;2023-03-26T05:46:49;9.80;99.90
20070;DHT22;10195;50.868;4.382;2023-03-26T05:49:15;9.80;99.90
20070;DHT22;10195;50.868;4.382;2023-03-26T05:51:41;9.70;99.90
20070;DHT22;10195;50.868;4.382;2023-03-26T05:54:06;9.70;99.90
20070;DHT22;10195;50.868;4.382;2023-03-26T05:56:32;9.70;99.90
20070;DHT22;10195;50.868;4.382;2023-03-26T05:58:58;9.80;99.90
20070;DHT22;10195;50.868;4.382;2023-03-26T06:01:23;9.80;99.90
20070;DHT22;10195;50.868;4.382;2023-03-26T06:03:50;9.90;99.90
20070;DHT22;10195;50.868;4.382;2023-03-26T06:06:17;9.90;99.90
20070;DHT22;10195;50.868;4.382;2023-03-26T06:08:51;9.80;99.90
20070;DHT22;10195;50.868;4.382;2023-03-26T06:11:18;9.70;99.90
20070;DHT22;10195;50.868;4.382;2023-03-26T06:13:44;9.70;99.90
20070;DHT22;10195;50.868;4.382;2023-03-26T06:16:11;9.70;99.90
20070;DHT22;10195;50.868;4.382;2023-03-26T06:18:38;9.70;99.90
20070;DHT22;10195;50.868;4.382;2023-03-26T06:21:04;9.70;99.90
20070;DHT22;10195;50.868;4.382;2023-03-26T06:23:30;9.60;99.90
20070;DHT22;10195;50.868;4.382;2023-03-26T06:25:57;9.40;99.90
20070;DHT22;10195;50.868;4.382;2023-03-26T06:28:23;9.50;99.90
20070;DHT22;10195;50.868;4.382;2023-03-26T06:30:49;9.70;99.90
20070;DHT22;10195;50.868;4.382;2023-03-26T06:33:15;9.90;99.90
20070;DHT22;10195;50.868;4.382;2023-03-26T06:35:42;9.90;99.90
20070;DHT22;10195;50.868;4.382;2023-03-26T06:38:10;10.00;99.90
20070;DHT22;10195;50.868;4.382;2023-03-26T06:40:36;10.00;99.90
20070;DHT22;10195;50.868;4.382;2023-03-26T06:43:02;9.90;99.90
20070;DHT22;10195;50.868;4.382;2023-03-26T06:45:28;9.90;99.90
20070;DHT22;10195;50.868;4.382;2023-03-26T06:47:54;9.80;99.90
20070;DHT22;10195;50.868;4.382;2023-03-26T06:50:20;9.70;99.90
20070;DHT22;10195;50.868;4.382;2023-03-26T06:52:46;9.80;99.90
20070;DHT22;10195;50.868;4.382;2023-03-26T06:55:13;9.70;99.90
20070;DHT22;10195;50.868;4.382;2023-03-26T06:57:38;9.50;99.90
20070;DHT22;10195;50.868;4.382;2023-03-26T07:00:05;9.50;99.90
20070;DHT22;10195;50.868;4.382;2023-03-26T07:02:31;9.40;99.90
20070;DHT22;10195;50.868;4.382;2023-03-26T07:04:57;9.40;99.90
20070;DHT22;10195;50.868;4.382;2023-03-26T07:07:23;9.20;99.90
20070;DHT22;10195;50.868;4.382;2023-03-26T07:09:49;9.20;99.90
20070;DHT22;10195;50.868;4.382;2023-03-26T07:12:15;9.20;99.90
20070;DHT22;10195;50.868;4.382;2023-03-26T07:14:41;9.00;99.90
20070;DHT22;10195;50.868;4.382;2023-03-26T07:17:07;9.10;99.90
20070;DHT22;10195;50.868;4.382;2023-03-26T07:19:33;9.10;99.90
20070;DHT22;10195;50.868;4.382;2023-03-26T07:21:59;9.20;99.90
20070;DHT22;10195;50.868;4.382;2023-03-26T07:24:25;9.20;99.90
20070;DHT22;10195;50.868;4.382;2023-03-26T07:30:04;9.30;99.90
20070;DHT22;10195;50.868;4.382;2023-03-26T07:32:36;9.30;99.90
20070;DHT22;10195;50.868;4.382;2023-03-26T07:40:08;9.30;99.90
20070;DHT22;10195;50.868;4.382;2023-03-26T07:45:39;9.10;99.90
20070;DHT22;10195;50.868;4.382;2023-03-26T07:48:37;9.10;99.90
20070;DHT22;10195;50.868;4.382;2023-03-26T07:51:05;9.00;99.90
20070;DHT22;10195;50.868;4.382;2023-03-26T07:53:31;9.00;99.90
20070;DHT22;10195;50.868;4.382;2023-03-26T07:56:20;9.00;99.90
20070;DHT22;10195;50.868;4.382;2023-03-26T07:59:29;9.00;99.90
20070;DHT22;10195;50.868;4.382;2023-03-26T08:01:53;9.00;99.90
20070;DHT22;10195;50.868;4.382;2023-03-26T08:10:06;8.90;99.90
20070;DHT22;10195;50.868;4.382;2023-03-26T08:23:36;8.90;99.90
20070;DHT22;10195;50.868;4.382;2023-03-26T08:26:17;8.90;99.90
20070;DHT22;10195;50.868;4.382;2023-03-26T08:29:06;8.80;99.90
20070;DHT22;10195;50.868;4.382;2023-03-26T08:31:39;8.90;99.90
20070;DHT22;10195;50.868;4.382;2023-03-26T08:34:09;9.00;99.90
20070;DHT22;10195;50.868;4.382;2023-03-26T08:36:36;8.90;99.90
20070;DHT22;10195;50.868;4.382;2023-03-26T08:39:02;8.90;99.90
20070;DHT22;10195;50.868;4.382;2023-03-26T08:45:01;9.00;99.90
20070;DHT22;10195;50.868;4.382;2023-03-26T09:07:28;8.90;99.90
20070;DHT22;10195;50.868;4.382;2023-03-26T09:41:17;9.00;99.90
20070;DHT22;10195;50.868;4.382;2023-03-26T09:54:49;8.80;99.90
20070;DHT22;10195;50.868;4.382;2023-03-26T10:00:17;8.70;99.90
20070;DHT22;10195;50.868;4.382;2023-03-26T10:10:58;8.90;99.90
20070;DHT22;10195;50.868;4.382;2023-03-26T10:13:29;8.90;99.90
20070;DHT22;10195;50.868;4.382;2023-03-26T10:18:38;9.00;99.90
20070;DHT22;10195;50.868;4.382;2023-03-26T10:21:18;9.00;99.90
20070;DHT22;10195;50.868;4.382;2023-03-26T10:31:41;8.50;99.90
20070;DHT22;10195;50.868;4.382;2023-03-26T10:36:43;8.60;99.90
20070;DHT22;10195;50.868;4.382;2023-03-26T10:39:32;8.80;99.90
20070;DHT22;10195;50.868;4.382;2023-03-26T10:42:20;8.80;99.90
20070;DHT22;10195;50.868;4.382;2023-03-26T10:45:16;8.80;99.90
20070;DHT22;10195;50.868;4.382;2023-03-26T10:58:47;8.60;99.90
20070;DHT22;10195;50.868;4.382;2023-03-26T11:04:54;8.40;99.90
20070;DHT22;10195;50.868;4.382;2023-03-26T11:15:45;8.40;99.90
20070;DHT22;10195;50.868;4.382;2023-03-26T11:18:38;8.40;99.90
20070;DHT22;10195;50.868;4.382;2023-03-26T11:21:23;8.40;99.90
20070;DHT22;10195;50.868;4.382;2023-03-26T11:24:06;8.50;99.90
20070;DHT22;10195;50.868;4.382;2023-03-26T11:26:55;8.80;99.90
20070;DHT22;10195;50.868;4.382;2023-03-26T11:29:33;9.00;99.90
20070;DHT22;10195;50.868;4.382;2023-03-26T11:32:03;8.80;99.90
20070;DHT22;10195;50.868;4.382;2023-03-26T11:34:48;8.80;99.90
20070;DHT22;10195;50.868;4.382;2023-03-26T11:37:28;8.70;99.90
20070;DHT22;10195;50.868;4.382;2023-03-26T11:39:56;8.80;99.90
20070;DHT22;10195;50.868;4.382;2023-03-26T11:42:23;9.10;99.90
20070;DHT22;10195;50.868;4.382;2023-03-26T11:44:56;9.20;99.90
20070;DHT22;10195;50.868;4.382;2023-03-26T11:47:45;9.20;99.90
20070;DHT22;10195;50.868;4.382;2023-03-26T11:50:19;9.30;99.90
20070;DHT22;10195;50.868;4.382;2023-03-26T11:52:46;9.50;99.90
20070;DHT22;10195;50.868;4.382;2023-03-26T11:55:12;9.60;99.90
20070;DHT22;10195;50.868;4.382;2023-03-26T11:57:41;9.80;99.90
20070;DHT22;10195;50.868;4.382;2023-03-26T12:00:14;9.70;99.90
20070;DHT22;10195;50.868;4.382;2023-03-26T12:02:44;9.60;99.90
20070;DHT22;10195;50.868;4.382;2023-03-26T12:05:21;9.60;99.90
20070;DHT22;10195;50.868;4.382;2023-03-26T12:07:54;9.60;99.90
20070;DHT22;10195;50.868;4.382;2023-03-26T12:12:56;9.80;99.90
20070;DHT22;10195;50.868;4.382;2023-03-26T12:15:23;9.90;99.90
20070;DHT22;10195;50.868;4.382;2023-03-26T12:17:52;10.00;99.90
20070;DHT22;10195;50.868;4.382;2023-03-26T12:22:50;9.90;99.90
20070;DHT22;10195;50.868;4.382;2023-03-26T12:25:26;10.20;99.90
20070;DHT22;10195;50.868;4.382;2023-03-26T12:27:59;10.00;99.90
20070;DHT22;10195;50.868;4.382;2023-03-26T12:30:38;9.90;99.90
20070;DHT22;10195;50.868;4.382;2023-03-26T12:33:20;10.00;99.90
20070;DHT22;10195;50.868;4.382;2023-03-26T12:35:51;9.90;99.90
20070;DHT22;10195;50.868;4.382;2023-03-26T12:38:31;9.80;99.90
20070;DHT22;10195;50.868;4.382;2023-03-26T12:41:10;9.70;99.90
20070;DHT22;10195;50.868;4.382;2023-03-26T12:43:42;9.70;99.90
20070;DHT22;10195;50.868;4.382;2023-03-26T12:46:31;9.70;99.90
20070;DHT22;10195;50.868;4.382;2023-03-26T12:49:02;9.60;99.90
20070;DHT22;10195;50.868;4.382;2023-03-26T12:51:52;9.60;99.90
20070;DHT22;10195;50.868;4.382;2023-03-26T12:54:38;9.90;99.90
20070;DHT22;10195;50.868;4.382;2023-03-26T12:57:18;10.20;99.90
20070;DHT22;10195;50.868;4.382;2023-03-26T13:02:29;10.00;99.90
20070;DHT22;10195;50.868;4.382;2023-03-26T13:13:35;10.00;99.90
20070;DHT22;10195;50.868;4.382;2023-03-26T13:19:00;10.90;99.90
20070;DHT22;10195;50.868;4.382;2023-03-26T13:32:50;10.00;99.90
20070;DHT22;10195;50.868;4.382;2023-03-26T13:35:37;10.20;99.90
20070;DHT22;10195;50.868;4.382;2023-03-26T13:38:14;9.90;99.90
20070;DHT22;10195;50.868;4.382;2023-03-26T13:47:06;9.90;99.90
20070;DHT22;10195;50.868;4.382;2023-03-26T13:49:14;9.80;99.90
20070;DHT22;10195;50.868;4.382;2023-03-26T13:51:49;9.60;99.90
20070;DHT22;10195;50.868;4.382;2023-03-26T13:57:22;9.70;99.90
20070;DHT22;10195;50.868;4.382;2023-03-26T14:02:39;9.70;99.90
20070;DHT22;10195;50.868;4.382;2023-03-26T14:05:41;9.60;99.90
20070;DHT22;10195;50.868;4.382;2023-03-26T14:10:57;10.00;99.90
20070;DHT22;10195;50.868;4.382;2023-03-26T14:16:17;10.50;99.90
20070;DHT22;10195;50.868;4.382;2023-03-26T14:19:17;10.30;99.90
20070;DHT22;10195;50.868;4.382;2023-03-26T14:24:44;9.90;99.90
20070;DHT22;10195;50.868;4.382;2023-03-26T14:32:52;10.30;99.90
20070;DHT22;10195;50.868;4.382;2023-03-26T14:35:39;10.20;99.90
20070;DHT22;10195;50.868;4.382;2023-03-26T14:54:44;9.90;99.90
20070;DHT22;10195;50.868;4.382;2023-03-26T14:57:30;9.90;99.90
20070;DHT22;10195;50.868;4.382;2023-03-26T15:03:31;9.70;99.90
20070;DHT22;10195;50.868;4.382;2023-03-26T15:06:48;9.60;99.90
20070;DHT22;10195;50.868;4.382;2023-03-26T15:15:24;9.40;99.90
20070;DHT22;10195;50.868;4.382;2023-03-26T15:26:54;9.40;99.90
20070;DHT22;10195;50.868;4.382;2023-03-26T15:29:36;9.30;99.90
20070;DHT22;10195;50.868;4.382;2023-03-26T15:32:23;9.40;99.90
20070;DHT22;10195;50.868;4.382;2023-03-26T15:42:03;9.80;99.90
20070;DHT22;10195;50.868;4.382;2023-03-26T15:46:58;9.90;99.90
20070;DHT22;10195;50.868;4.382;2023-03-26T15:49:39;9.90;99.90
20070;DHT22;10195;50.868;4.382;2023-03-26T15:52:29;9.70;99.90
20070;DHT22;10195;50.868;4.382;2023-03-26T15:57:54;9.30;99.90
20070;DHT22;10195;50.868;4.382;2023-03-26T16:00:26;9.30;99.90
20070;DHT22;10195;50.868;4.382;2023-03-26T16:05:59;9.20;99.90
20070;DHT22;10195;50.868;4.382;2023-03-26T16:08:33;9.20;99.90
20070;DHT22;10195;50.868;4.382;2023-03-26T16:11:04;9.10;99.90
20070;DHT22;10195;50.868;4.382;2023-03-26T16:14:08;9.10;99.90
20070;DHT22;10195;50.868;4.382;2023-03-26T16:22:03;9.30;99.90
20070;DHT22;10195;50.868;4.382;2023-03-26T16:24:33;9.40;99.90
20070;DHT22;10195;50.868;4.382;2023-03-26T16:27:29;9.60;99.90
20070;DHT22;10195;50.868;4.382;2023-03-26T16:32:33;9.70;99.90
20070;DHT22;10195;50.868;4.382;2023-03-26T16:35:02;10.00;99.90
20070;DHT22;10195;50.868;4.382;2023-03-26T16:37:39;9.90;99.90
20070;DHT22;10195;50.868;4.382;2023-03-26T16:46:00;9.70;99.90
20070;DHT22;10195;50.868;4.382;2023-03-26T16:51:34;9.80;99.90
20070;DHT22;10195;50.868;4.382;2023-03-26T17:17:45;9.40;99.90
20070;DHT22;10195;50.868;4.382;2023-03-26T17:26:02;9.30;99.90
20070;DHT22;10195;50.868;4.382;2023-03-26T17:31:42;9.60;99.90
20070;DHT22;10195;50.868;4.382;2023-03-26T17:37:26;9.20;99.90
20070;DHT22;10195;50.868;4.382;2023-03-26T17:42:30;9.40;99.90
20070;DHT22;10195;50.868;4.382;2023-03-26T17:45:15;9.30;99.90
20070;DHT22;10195;50.868;4.382;2023-03-26T17:47:51;9.40;99.90
20070;DHT22;10195;50.868;4.382;2023-03-26T17:50:23;9.40;99.90
20070;DHT22;10195;50.868;4.382;2023-03-26T17:52:57;9.50;99.90
20070;DHT22;10195;50.868;4.382;2023-03-26T17:55:33;9.60;99.90
20070;DHT22;10195;50.868;4.382;2023-03-26T17:58:03;9.50;99.90
20070;DHT22;10195;50.868;4.382;2023-03-26T18:00:42;9.40;99.90
20070;DHT22;10195;50.868;4.382;2023-03-26T18:03:19;9.00;99.90
20070;DHT22;10195;50.868;4.382;2023-03-26T18:05:46;9.10;99.90
20070;DHT22;10195;50.868;4.382;2023-03-26T18:16:52;9.20;99.90
20070;DHT22;10195;50.868;4.382;2023-03-26T18:19:21;9.00;99.90
20070;DHT22;10195;50.868;4.382;2023-03-26T18:21:49;9.10;99.90
20070;DHT22;10195;50.868;4.382;2023-03-26T18:24:36;9.10;99.90
20070;DHT22;10195;50.868;4.382;2023-03-26T18:29:34;9.00;99.90
20070;DHT22;10195;50.868;4.382;2023-03-26T18:34:46;8.80;99.90
20070;DHT22;10195;50.868;4.382;2023-03-26T18:37:20;8.70;99.90
20070;DHT22;10195;50.868;4.382;2023-03-26T18:39:57;8.60;99.90
20070;DHT22;10195;50.868;4.382;2023-03-26T18:42:24;8.70;99.90
20070;DHT22;10195;50.868;4.382;2023-03-26T18:44:51;8.50;99.90
20070;DHT22;10195;50.868;4.382;2023-03-26T18:47:18;8.70;99.90
20070;DHT22;10195;50.868;4.382;2023-03-26T18:49:46;8.70;99.90
20070;DHT22;10195;50.868;4.382;2023-03-26T18:52:16;8.70;99.90
20070;DHT22;10195;50.868;4.382;2023-03-26T18:54:45;8.70;99.90
20070;DHT22;10195;50.868;4.382;2023-03-26T18:57:24;8.70;99.90
20070;DHT22;10195;50.868;4.382;2023-03-26T18:59:54;8.50;99.90
20070;DHT22;10195;50.868;4.382;2023-03-26T19:02:21;8.40;99.90
20070;DHT22;10195;50.868;4.382;2023-03-26T19:04:49;8.50;99.90
20070;DHT22;10195;50.868;4.382;2023-03-26T19:07:21;8.40;99.90
20070;DHT22;10195;50.868;4.382;2023-03-26T19:09:48;8.30;99.90
20070;DHT22;10195;50.868;4.382;2023-03-26T19:12:19;8.30;99.90
20070;DHT22;10195;50.868;4.382;2023-03-26T19:14:57;8.40;99.90
20070;DHT22;10195;50.868;4.382;2023-03-26T19:17:34;8.30;99.90
20070;DHT22;10195;50.868;4.382;2023-03-26T19:20:01;8.20;99.90
20070;DHT22;10195;50.868;4.382;2023-03-26T19:22:28;8.40;99.90
20070;DHT22;10195;50.868;4.382;2023-03-26T19:25:00;8.40;99.90
20070;DHT22;10195;50.868;4.382;2023-03-26T19:27:26;8.30;99.90
20070;DHT22;10195;50.868;4.382;2023-03-26T19:29:52;8.20;99.90
20070;DHT22;10195;50.868;4.382;2023-03-26T19:32:20;8.00;99.90
20070;DHT22;10195;50.868;4.382;2023-03-26T19:34:57;8.00;99.90
20070;DHT22;10195;50.868;4.382;2023-03-26T19:37:27;8.00;99.90
20070;DHT22;10195;50.868;4.382;2023-03-26T19:40:23;8.10;99.90
20070;DHT22;10195;50.868;4.382;2023-03-26T19:42:56;8.00;99.90
20070;DHT22;10195;50.868;4.382;2023-03-26T19:45:22;8.00;99.90
20070;DHT22;10195;50.868;4.382;2023-03-26T19:47:52;8.10;99.90
20070;DHT22;10195;50.868;4.382;2023-03-26T19:50:29;8.10;99.90
20070;DHT22;10195;50.868;4.382;2023-03-26T19:55:29;8.00;99.90
20070;DHT22;10195;50.868;4.382;2023-03-26T19:57:55;8.00;99.90
20070;DHT22;10195;50.868;4.382;2023-03-26T20:00:20;7.80;99.90
20070;DHT22;10195;50.868;4.382;2023-03-26T20:02:46;7.80;99.90
20070;DHT22;10195;50.868;4.382;2023-03-26T20:05:27;7.90;99.90
20070;DHT22;10195;50.868;4.382;2023-03-26T20:07:59;7.70;99.90
20070;DHT22;10195;50.868;4.382;2023-03-26T20:10:26;7.60;99.90
20070;DHT22;10195;50.868;4.382;2023-03-26T20:12:52;7.50;99.90
20070;DHT22;10195;50.868;4.382;2023-03-26T20:15:27;7.60;99.90
20070;DHT22;10195;50.868;4.382;2023-03-26T20:17:54;7.60;99.90
20070;DHT22;10195;50.868;4.382;2023-03-26T20:20:21;7.70;99.90
20070;DHT22;10195;50.868;4.382;2023-03-26T20:22:49;7.80;99.90
20070;DHT22;10195;50.868;4.382;2023-03-26T20:25:29;7.80;99.90
20070;DHT22;10195;50.868;4.382;2023-03-26T20:27:57;7.70;99.90
20070;DHT22;10195;50.868;4.382;2023-03-26T20:30:23;7.70;99.90
20070;DHT22;10195;50.868;4.382;2023-03-26T20:32:50;7.60;99.90
20070;DHT22;10195;50.868;4.382;2023-03-26T20:35:20;7.40;99.90
20070;DHT22;10195;50.868;4.382;2023-03-26T20:37:46;7.40;99.90
20070;DHT22;10195;50.868;4.382;2023-03-26T20:40:13;7.30;99.90
20070;DHT22;10195;50.868;4.382;2023-03-26T20:42:40;7.30;99.90
20070;DHT22;10195;50.868;4.382;2023-03-26T20:45:18;7.30;99.90
20070;DHT22;10195;50.868;4.382;2023-03-26T20:47:44;7.30;99.90
20070;DHT22;10195;50.868;4.382;2023-03-26T20:50:14;7.30;99.90
20070;DHT22;10195;50.868;4.382;2023-03-26T20:52:43;7.40;99.90
20070;DHT22;10195;50.868;4.382;2023-03-26T20:55:12;7.30;99.90
20070;DHT22;10195;50.868;4.382;2023-03-26T20:57:38;7.20;99.90
20070;DHT22;10195;50.868;4.382;2023-03-26T21:00:05;7.20;99.90
20070;DHT22;10195;50.868;4.382;2023-03-26T21:02:40;7.20;99.90
20070;DHT22;10195;50.868;4.382;2023-03-26T21:05:09;7.20;99.90
20070;DHT22;10195;50.868;4.382;2023-03-26T21:07:42;7.20;99.90
20070;DHT22;10195;50.868;4.382;2023-03-26T21:10:12;7.20;99.90
20070;DHT22;10195;50.868;4.382;2023-03-26T21:12:43;7.30;99.90
20070;DHT22;10195;50.868;4.382;2023-03-26T21:15:12;7.30;99.90
20070;DHT22;10195;50.868;4.382;2023-03-26T21:17:38;7.20;99.90
20070;DHT22;10195;50.868;4.382;2023-03-26T21:20:04;7.20;99.90
20070;DHT22;10195;50.868;4.382;2023-03-26T21:25:30;7.20;99.90
20070;DHT22;10195;50.868;4.382;2023-03-26T21:30:46;7.20;99.90
20070;DHT22;10195;50.868;4.382;2023-03-26T21:33:12;7.20;99.90
20070;DHT22;10195;50.868;4.382;2023-03-26T21:35:39;7.20;99.90
20070;DHT22;10195;50.868;4.382;2023-03-26T21:38:05;7.20;99.90
20070;DHT22;10195;50.868;4.382;2023-03-26T21:40:34;7.20;99.90
20070;DHT22;10195;50.868;4.382;2023-03-26T21:43:00;7.00;99.90
20070;DHT22;10195;50.868;4.382;2023-03-26T21:45:26;7.00;99.90